CYKACYLW

Guest
Details From CYKA - Kamloops
To CYLW - Kelowna
Flight Number -
Tags Generated
Created
Modified
Stats Distance 60 nm / 111 km
Max Altitude 0 ft / 0 m
Waypoints 2
Social Downloads 0
Likes 0
Share VATSIM

Download

Looking for another format? Having issues loading an existing format? Contact us
Advertisement - Login to hide

Notes

Generated

Route

CYKA CYLW

ID Type Via Altitude Latitude Longitude Leg Dist Tot Dist Heading (true) Name
O CYKA APT - 0 ft / 0 m 50.69946˚ -120.44626˚ - 0 nm - -
O CYLW APT - 0 ft / 0 m 49.96608˚ -119.37914˚ 60 nm 60 nm 137° / 138° -

Altitude Profile

Advertisement - Login to hide

CYKA

Details ICAO CYKA (YKA)
Name Kamloops
Region Canada
Timezone America/Vancouver (UTC-8.0)
Stats Elevation 1,133 ft / 345 m (AMSL)
Location 50.701875° -120.442709°
Runways 2
Magnetic Variation 16.080° E

METAR

CYKA 151000Z 13004KT 090V160 40SM BKN039 OVC100 02/M02 A3015 RMK SC5AC3 PRESRR SLP228

Decode

TAF

TAF CYKA 150638Z 1507/1519 10010KT P6SM BKN040 OVC200 FM151000 10007KT P6SM OVC100 TEMPO 1510/1514 4SM -SN BKN050 OVC100 FM151400 12007KT 2SM -SN BKN020 OVC050 TEMPO 1514/1519 5SM -SN SCT020 OVC060 RMK NXT FCST BY 151300Z

Decode

Departure Runways

ID Width Length Bearing (true) Bearing (mag) Surface Threshold Offset Overrun Length
04 49 ft / 15 m 2,815 ft / 858 m 61.02° 44.94° Asphalt 686 ft / 209 m 0 ft / 0 m
08 148 ft / 45 m 5,999 ft / 1,828 m 103.28° 87.20° Asphalt 0 ft / 0 m 0 ft / 0 m
22 49 ft / 15 m 2,815 ft / 858 m 241.03° 224.95° Asphalt 0 ft / 0 m 0 ft / 0 m
26 148 ft / 45 m 5,999 ft / 1,828 m 283.30° 267.22° Asphalt 0 ft / 0 m 0 ft / 0 m

CYLW

Details ICAO CYLW (YLW)
Name Kelowna
Region Canada
Timezone America/Vancouver (UTC-8.0)
Stats Elevation 1,409 ft / 429 m (AMSL)
Location 49.956117° -119.377757°
Runways 1
Magnetic Variation 15.633° E

METAR

CYLW 151000Z AUTO 18008KT 9SM OVC026 01/M02 A3020 RMK SLP247

Decode

TAF

TAF CYLW 150638Z 1507/1519 VRB03KT P6SM OVC030 TEMPO 1507/1513 5SM BR OVC020 FM151300 16006KT P6SM SCT050 OVC100 TEMPO 1513/1515 4SM -SN BKN050 OVC100 FM151500 16006KT 1SM -SN BKN015 OVC040 TEMPO 1515/1519 5SM -SN SCT015 OVC050 RMK FCST BASED ON AUTO OBS. NXT FCST BY 151300Z

Decode

Destination Runways

ID Width Length Bearing (true) Bearing (mag) Surface Threshold Offset Overrun Length
16 200 ft / 61 m 7,299 ft / 2,225 m 174.89° 159.26° Asphalt 0 ft / 0 m 0 ft / 0 m
34 200 ft / 61 m 7,299 ft / 2,225 m 354.89° 339.26° Asphalt 0 ft / 0 m 0 ft / 0 m

Approach Navaids

Runway Type Ident Frequency Range Bearing (true) Bearing (mag) Slope Elevation
16 Localiser ILW 111.30 MHz 18 nm / 33 km 174.87° 159.24° - 1,049 ft / 320 m (AMSL)
16 Glidescope ILW 111.30 MHz 10 nm / 19 km 174.89° 159.25° 3.20° 1,409 ft / 429 m (AMSL)
16 DME ILW 111.30 MHz 18 nm / 33 km - - - 1,409 ft / 429 m (AMSL)

Popular Alternatives